Time;durP1;ratioP1;P1;durP2;ratioP2;P2;SDS_P1;SDS_P2;PMS_P1;PMS_P2;Temp;Humidity;BMP_temperature;BMP_pressure;BME280_temperature;BME280_humidity;BME280_pressure;Samples;Min_cycle;Max_cycle;Signal;HPM_P1;HPM_P2
2023/10/14 00:01:11;;;;;;;34.80;19.60;;;;;;;13.21;75.38;100903.67;125159;1099;104156;-84
2023/10/14 00:03:41;;;;;;;38.73;19.67;;;;;;;13.19;75.87;100895.72;125541;1099;104651;-82
2023/10/14 00:06:12;;;;;;;40.00;20.43;;;;;;;13.18;75.31;100893.92;125462;1099;104163;-82
2023/10/14 00:08:52;;;;;;;39.33;20.27;;;;;;;13.19;75.70;100890.45;125581;1099;102284;-82
2023/10/14 00:11:21;;;;;;;39.50;21.07;;;;;;;13.19;75.54;100885.19;125616;1099;104172;-81
2023/10/14 00:13:52;;;;;;;39.13;20.87;;;;;;;13.18;75.90;100888.66;125328;1099;102276;-84
2023/10/14 00:16:30;;;;;;;36.63;20.73;;;;;;;13.16;76.06;100886.84;125700;1099;101781;-83
2023/10/14 00:19:01;;;;;;;41.30;20.73;;;;;;;13.12;75.57;100878.84;125539;1098;101818;-81
2023/10/14 00:21:30;;;;;;;34.40;19.73;;;;;;;13.11;75.47;100874.41;125475;1099;102028;-83
2023/10/14 00:24:01;;;;;;;38.90;20.65;;;;;;;13.10;75.72;100876.98;125518;1099;104265;-82
2023/10/14 00:26:30;;;;;;;37.97;20.03;;;;;;;13.10;75.72;100869.09;125587;1099;102601;-81
2023/10/14 00:29:16;;;;;;;39.80;19.60;;;;;;;13.08;76.06;100874.31;125615;1099;104271;-82
2023/10/14 00:31:47;;;;;;;37.67;19.17;;;;;;;13.02;75.51;100873.23;125556;1099;104214;-86
2023/10/14 00:34:17;;;;;;;35.27;18.97;;;;;;;12.99;75.99;100871.37;125551;1098;102194;-81
2023/10/14 00:36:46;;;;;;;39.93;19.53;;;;;;;12.98;75.85;100874.88;125622;1098;102045;-80
2023/10/14 00:39:16;;;;;;;36.57;19.70;;;;;;;12.97;75.65;100873.08;125483;1099;102111;-80
2023/10/14 00:41:49;;;;;;;39.00;19.65;;;;;;;12.95;75.96;100873.03;125565;1099;104205;-81
2023/10/14 00:44:19;;;;;;;38.85;19.25;;;;;;;12.90;76.23;100866.73;125546;1099;104194;-81
2023/10/14 00:46:48;;;;;;;34.83;19.50;;;;;;;12.90;75.67;100868.45;125572;1099;102016;-81
2023/10/14 00:49:18;;;;;;;37.70;19.47;;;;;;;12.88;75.50;100871.03;125558;1099;102800;-80
2023/10/14 00:51:51;;;;;;;32.70;18.80;;;;;;;12.87;75.91;100868.35;125569;1099;102214;-81
2023/10/14 00:54:28;;;;;;;36.80;19.63;;;;;;;12.86;76.09;100864.84;125124;1099;104163;-80
2023/10/14 00:57:09;;;;;;;39.93;19.77;;;;;;;12.88;75.99;100864.89;125470;1099;104275;-82
2023/10/14 00:59:38;;;;;;;40.93;20.73;;;;;;;12.85;75.97;100860.41;125373;1099;101883;-81
2023/10/14 01:02:09;;;;;;;38.47;19.27;;;;;;;12.86;75.74;100861.31;125083;1099;102194;-81
2023/10/14 01:04:40;;;;;;;37.77;19.83;;;;;;;12.84;76.14;100858.64;125532;1099;101976;-82
2023/10/14 01:07:13;;;;;;;38.70;19.83;;;;;;;12.82;75.69;100848.88;125631;1098;104326;-83
2023/10/14 01:09:51;;;;;;;38.67;20.43;;;;;;;12.81;75.88;100854.98;125546;1098;101861;-83
2023/10/14 01:12:23;;;;;;;36.73;19.83;;;;;;;12.75;75.68;100848.69;125680;1099;104249;-81
2023/10/14 01:14:54;;;;;;;33.93;19.53;;;;;;;12.72;76.09;100848.59;125473;1099;102179;-81
2023/10/14 01:17:27;;;;;;;37.90;19.87;;;;;;;12.70;76.20;100847.66;125592;1099;104159;-81
2023/10/14 01:19:59;;;;;;;38.50;19.12;;;;;;;12.65;76.10;100845.70;125367;1099;104159;-81
2023/10/14 01:22:29;;;;;;;38.77;19.40;;;;;;;12.61;76.20;100852.62;125569;1099;104173;-80
2023/10/14 01:24:58;;;;;;;38.20;20.43;;;;;;;12.59;76.34;100854.31;125634;1099;104089;-81
2023/10/14 01:27:34;;;;;;;38.50;19.67;;;;;;;12.56;75.92;100855.09;125651;1099;104237;-80
2023/10/14 01:30:08;;;;;;;38.70;19.45;;;;;;;12.52;76.30;100854.94;125578;1099;101961;-81
2023/10/14 01:32:43;;;;;;;36.83;19.40;;;;;;;12.51;76.33;100853.14;125463;1099;104181;-81
2023/10/14 01:35:23;;;;;;;36.97;19.83;;;;;;;12.51;76.08;100850.51;125618;1099;104179;-81
2023/10/14 01:37:53;;;;;;;38.00;19.53;;;;;;;12.51;76.27;100846.16;125680;1098;104169;-81
2023/10/14 01:40:27;;;;;;;34.80;19.37;;;;;;;12.49;76.29;100837.30;125700;1098;104284;-82
2023/10/14 01:42:57;;;;;;;37.70;19.90;;;;;;;12.48;76.48;100835.53;126220;1098;102128;-83
2023/10/14 01:45:29;;;;;;;36.97;19.13;;;;;;;12.47;76.63;100840.74;125641;1099;101989;-81
2023/10/14 01:48:12;;;;;;;39.37;19.27;;;;;;;12.46;75.87;100841.58;125567;1099;101962;-81
2023/10/14 01:50:46;;;;;;;37.25;19.77;;;;;;;12.44;76.29;100833.63;125653;1098;101868;-80
2023/10/14 01:53:21;;;;;;;37.40;19.70;;;;;;;12.42;76.52;100832.70;125523;1099;103683;-81
2023/10/14 01:55:52;;;;;;;35.90;19.87;;;;;;;12.42;76.56;100824.80;125535;1099;104232;-80
2023/10/14 01:58:22;;;;;;;37.87;19.40;;;;;;;12.43;76.42;100823.05;124955;1099;104345;-81
2023/10/14 02:00:56;;;;;;;37.87;20.37;;;;;;;12.42;76.61;100832.70;125324;1099;104252;-80
2023/10/14 02:03:26;;;;;;;36.90;18.45;;;;;;;12.41;76.59;100823.00;125506;1099;101903;-80
2023/10/14 02:05:55;;;;;;;37.13;19.43;;;;;;;12.39;76.54;100825.58;125634;1099;104176;-80
2023/10/14 02:08:23;;;;;;;35.03;19.10;;;;;;;12.35;76.32;100823.67;125528;1098;101967;-80
2023/10/14 02:10:54;;;;;;;38.50;19.37;;;;;;;12.30;76.42;100825.27;125521;1099;102070;-80
2023/10/14 02:13:23;;;;;;;37.50;19.43;;;;;;;12.27;76.64;100819.02;125585;1099;102087;-80
2023/10/14 02:15:52;;;;;;;39.00;20.53;;;;;;;12.24;76.59;100817.16;125596;1099;102090;-81
2023/10/14 02:18:22;;;;;;;34.97;19.37;;;;;;;12.25;76.52;100820.68;125232;1099;102002;-80
2023/10/14 02:21:04;;;;;;;37.00;18.70;;;;;;;12.27;76.75;100816.39;125483;1098;102153;-81
2023/10/14 02:23:47;;;;;;;35.97;18.73;;;;;;;12.28;76.32;100821.70;125491;1099;104051;-81
2023/10/14 02:26:22;;;;;;;38.70;18.30;;;;;;;12.29;76.85;100819.95;125511;1099;102080;-80
2023/10/14 02:28:52;;;;;;;37.47;19.37;;;;;;;12.23;76.44;100818.91;125584;1099;104307;-81
2023/10/14 02:31:29;;;;;;;38.10;19.67;;;;;;;12.22;76.68;100817.11;125522;1098;102022;-82
2023/10/14 02:34:04;;;;;;;37.93;18.47;;;;;;;12.22;76.92;100819.74;125494;1099;101821;-82
2023/10/14 02:36:35;;;;;;;38.07;20.40;;;;;;;12.24;76.48;100819.80;125571;1099;104268;-81
2023/10/14 02:39:11;;;;;;;37.33;19.70;;;;;;;12.24;76.65;100819.80;125511;1099;104179;-82
2023/10/14 02:41:43;;;;;;;38.60;19.80;;;;;;;12.23;76.66;100812.73;125544;1099;104162;-83
2023/10/14 02:44:28;;;;;;;37.37;19.43;;;;;;;12.23;76.79;100812.73;125564;1099;104169;-81
2023/10/14 02:47:03;;;;;;;39.70;19.93;;;;;;;12.23;76.79;100810.10;125507;1099;104178;-82
2023/10/14 02:49:37;;;;;;;39.30;19.40;;;;;;;12.20;76.83;100810.91;125579;1099;104275;-83
2023/10/14 02:52:10;;;;;;;38.73;19.77;;;;;;;12.19;76.67;100810.86;125555;1097;104189;-82
2023/10/14 02:54:41;;;;;;;39.53;19.83;;;;;;;12.18;76.93;100814.32;125507;1099;101910;-81
2023/10/14 02:57:14;;;;;;;37.73;19.93;;;;;;;12.16;76.86;100797.60;125204;1099;104309;-80
2023/10/14 02:59:44;;;;;;;39.07;19.57;;;;;;;12.14;76.58;100808.08;125473;1099;104223;-81
2023/10/14 03:02:15;;;;;;;42.87;19.63;;;;;;;12.14;76.80;100800.19;125523;1099;101833;-81
2023/10/14 03:04:56;;;;;;;42.97;20.57;;;;;;;12.12;76.93;100804.47;125227;1099;104265;-81
2023/10/14 03:07:28;;;;;;;36.40;20.20;;;;;;;12.10;76.68;100797.39;125550;1099;101830;-81
2023/10/14 03:09:59;;;;;;;35.10;19.50;;;;;;;12.08;76.75;100801.72;125259;1099;104268;-82
2023/10/14 03:12:31;;;;;;;34.53;18.67;;;;;;;12.07;76.89;100799.92;125134;1099;102702;-81
2023/10/14 03:15:00;;;;;;;32.53;18.50;;;;;;;12.06;76.97;100806.92;125119;1099;101900;-81
2023/10/14 03:17:42;;;;;;;40.97;20.43;;;;;;;12.06;76.82;100793.77;125514;1099;104248;-81
2023/10/14 03:20:25;;;;;;;41.90;20.17;;;;;;;12.05;77.04;100795.48;125554;1099;101868;-80
2023/10/14 03:22:55;;;;;;;36.07;19.53;;;;;;;12.06;77.07;100799.03;125548;1099;103117;-80
2023/10/14 03:25:24;;;;;;;42.40;21.30;;;;;;;12.04;77.10;100801.61;125538;1099;104750;-79
2023/10/14 03:28:00;;;;;;;37.63;20.83;;;;;;;12.01;76.89;100793.62;125652;1099;101982;-80
2023/10/14 03:30:31;;;;;;;48.20;22.57;;;;;;;12.02;77.01;100797.13;125526;1099;101846;-79
2023/10/14 03:33:00;;;;;;;42.17;22.27;;;;;;;12.01;76.98;100782.18;125586;1099;104182;-81
2023/10/14 03:35:32;;;;;;;45.40;24.37;;;;;;;12.01;76.99;100790.06;125521;1099;101888;-81
2023/10/14 03:38:08;;;;;;;41.93;23.17;;;;;;;12.00;77.06;100788.30;125598;1099;104236;-80
2023/10/14 03:40:51;;;;;;;44.17;24.73;;;;;;;11.99;77.02;100781.24;125236;1099;104185;-80
2023/10/14 03:43:20;;;;;;;42.95;25.15;;;;;;;11.98;76.94;100780.36;125565;1099;104267;-80
2023/10/14 03:45:54;;;;;;;50.10;26.00;;;;;;;11.96;77.04;100778.50;125616;1099;104095;-80
2023/10/14 03:48:28;;;;;;;49.60;26.43;;;;;;;11.93;77.08;100774.02;125559;1099;101900;-81
2023/10/14 03:51:03;;;;;;;49.07;26.30;;;;;;;11.90;76.88;100773.00;125073;1099;101843;-81
2023/10/14 03:53:33;;;;;;;50.23;25.70;;;;;;;11.88;76.85;100768.57;125523;1099;102810;-81
2023/10/14 03:56:03;;;;;;;42.33;23.67;;;;;;;11.87;76.68;100764.17;125133;1099;102009;-82
2023/10/14 03:58:32;;;;;;;47.07;24.17;;;;;;;11.88;77.06;100765.94;125596;1099;104169;-80
2023/10/14 04:01:02;;;;;;;47.33;24.10;;;;;;;11.87;77.16;100771.15;125574;1099;102125;-83
2023/10/14 04:03:39;;;;;;;43.47;22.37;;;;;;;11.84;76.88;100773.67;125542;1099;104419;-81
2023/10/14 04:06:09;;;;;;;48.23;23.10;;;;;;;11.82;77.37;100768.36;125560;1099;102050;-81
2023/10/14 04:08:47;;;;;;;47.30;23.53;;;;;;;11.82;77.24;100772.73;125659;1099;104338;-81
2023/10/14 04:11:25;;;;;;;47.33;22.87;;;;;;;11.83;77.28;100769.27;125503;1099;102293;-81
2023/10/14 04:14:04;;;;;;;43.20;21.43;;;;;;;11.83;77.48;100774.53;125550;1099;102054;-81
2023/10/14 04:16:49;;;;;;;41.93;20.47;;;;;;;11.77;77.49;100756.80;125240;1099;102020;-80
2023/10/14 04:19:27;;;;;;;40.47;21.20;;;;;;;11.81;77.17;100770.93;125519;1099;104248;-81
2023/10/14 04:21:59;;;;;;;41.67;21.27;;;;;;;11.76;77.29;100776.03;125587;1099;104179;-80
2023/10/14 04:24:45;;;;;;;39.33;20.83;;;;;;;11.75;77.29;100781.23;125500;1099;104245;-80
2023/10/14 04:27:18;;;;;;;38.13;20.13;;;;;;;11.75;77.55;100775.97;125586;1099;104211;-81
2023/10/14 04:29:52;;;;;;;38.70;19.83;;;;;;;11.74;77.26;100777.72;125500;1099;104230;-82
2023/10/14 04:32:27;;;;;;;38.27;20.93;;;;;;;11.73;77.23;100778.55;125537;1099;101798;-81
2023/10/14 04:34:57;;;;;;;37.70;19.60;;;;;;;11.73;76.98;100783.80;125459;1099;104175;-83
2023/10/14 04:37:36;;;;;;;39.17;19.40;;;;;;;11.72;77.15;100781.12;125413;1099;104224;-82
2023/10/14 04:40:16;;;;;;;42.43;20.23;;;;;;;11.72;77.18;100779.41;125605;1099;102362;-82
2023/10/14 04:42:46;;;;;;;38.83;19.83;;;;;;;11.73;77.40;100780.30;125527;1099;102048;-83
2023/10/14 04:45:16;;;;;;;37.23;19.63;;;;;;;11.74;77.36;100784.72;125560;1098;101999;-86
2023/10/14 04:47:47;;;;;;;40.23;20.17;;;;;;;11.74;77.26;100784.72;125561;1099;104166;-86
2023/10/14 04:50:21;;;;;;;38.10;21.50;;;;;;;11.74;77.19;100784.72;125603;1099;104211;-86
2023/10/14 04:52:50;;;;;;;45.07;21.20;;;;;;;11.75;77.39;100783.86;125552;1099;104348;-87
2023/10/14 04:55:25;;;;;;;38.93;19.73;;;;;;;11.76;77.40;100786.55;125520;1099;104195;-85
2023/10/14 05:00:42;;;;;;;41.02;21.93;;;;;;;11.82;77.55;100791.14;125009;1099;101991;-81
2023/10/14 05:03:12;;;;;;;38.67;20.43;;;;;;;11.86;77.47;100793.92;125563;1099;101833;-82
2023/10/14 05:05:43;;;;;;;38.93;20.43;;;;;;;11.90;77.81;100786.15;125556;1099;104182;-82
2023/10/14 05:08:15;;;;;;;35.70;19.90;;;;;;;11.95;77.64;100784.59;125148;1099;101906;-82
2023/10/14 05:10:45;;;;;;;42.83;21.63;;;;;;;11.97;77.81;100786.45;125565;1098;104166;-80
2023/10/14 05:13:13;;;;;;;37.73;21.53;;;;;;;12.01;77.91;100790.06;125660;1099;104279;-82
2023/10/14 05:15:43;;;;;;;40.37;20.70;;;;;;;12.06;78.02;100788.52;125686;1098;104142;-80
2023/10/14 05:18:16;;;;;;;37.90;20.43;;;;;;;12.11;77.93;100786.04;125545;1099;101915;-84
2023/10/14 05:20:56;;;;;;;37.87;19.87;;;;;;;12.17;77.95;100788.84;125569;1099;104072;-83
2023/10/14 05:23:30;;;;;;;38.63;19.03;;;;;;;12.22;78.07;100788.17;125583;1099;104208;-83
2023/10/14 05:26:06;;;;;;;33.93;18.50;;;;;;;12.27;78.07;100785.70;125629;1099;104176;-84
2023/10/14 05:28:36;;;;;;;36.87;19.17;;;;;;;12.35;78.46;100781.57;125651;1099;104179;-82
2023/10/14 05:31:08;;;;;;;38.20;20.40;;;;;;;12.44;78.68;100785.38;125570;1099;104198;-84
2023/10/14 05:33:37;;;;;;;34.97;18.73;;;;;;;12.49;78.88;100779.39;125651;1099;102084;-83
2023/10/14 05:36:06;;;;;;;36.20;18.00;;;;;;;12.57;78.85;100784.91;125625;1099;104238;-80
2023/10/14 05:38:35;;;;;;;32.17;18.43;;;;;;;12.64;78.88;100784.27;125512;1099;104242;-81
2023/10/14 05:41:11;;;;;;;37.30;19.73;;;;;;;12.74;79.12;100788.08;125510;1099;102150;-81
2023/10/14 05:43:40;;;;;;;35.13;18.60;;;;;;;12.80;78.79;100785.63;125528;1099;104191;-81
2023/10/14 05:46:12;;;;;;;36.00;19.20;;;;;;;12.87;78.95;100797.25;125552;1099;104251;-80
2023/10/14 05:48:41;;;;;;;33.37;18.17;;;;;;;12.92;79.05;100795.67;125536;1099;104390;-81
2023/10/14 05:51:09;;;;;;;37.40;19.67;;;;;;;12.99;79.03;100794.99;125552;1099;104248;-81
2023/10/14 05:53:38;;;;;;;36.03;19.73;;;;;;;13.05;79.26;100797.81;125561;1099;102277;-81
2023/10/14 05:56:09;;;;;;;39.35;19.85;;;;;;;13.13;79.47;100795.41;125480;1099;104189;-84
2023/10/14 05:58:40;;;;;;;37.00;18.93;;;;;;;13.22;79.38;100787.78;125438;1099;101967;-81
2023/10/14 06:01:10;;;;;;;34.20;19.70;;;;;;;13.29;79.67;100779.22;125238;1099;101997;-85
2023/10/14 06:03:40;;;;;;;39.87;21.87;;;;;;;13.36;79.17;100775.04;125428;1099;104265;-86
2023/10/14 06:06:10;;;;;;;40.03;21.33;;;;;;;13.44;79.42;100776.14;125571;1099;102121;-85
2023/10/14 06:08:39;;;;;;;36.73;21.60;;;;;;;13.50;79.59;100772.80;125658;1099;104190;-81
2023/10/14 06:11:10;;;;;;;36.67;21.83;;;;;;;13.57;79.44;100766.86;125506;1099;104281;-83
2023/10/14 06:13:38;;;;;;;40.70;20.53;;;;;;;13.64;79.13;100762.64;125534;1099;101865;-84
2023/10/14 06:16:10;;;;;;;37.47;20.90;;;;;;;13.74;79.39;100769.05;125574;1099;104217;-86
2023/10/14 06:18:39;;;;;;;40.80;21.67;;;;;;;13.80;79.24;100763.94;125586;1099;104198;-81
2023/10/14 06:21:10;;;;;;;39.00;21.93;;;;;;;13.88;79.42;100767.66;125622;1099;104241;-81
2023/10/14 06:23:40;;;;;;;39.67;22.17;;;;;;;13.95;79.24;100759.07;125557;1099;104358;-82
2023/10/14 06:26:11;;;;;;;40.17;21.30;;;;;;;14.03;79.10;100765.42;125556;1098;104162;-81
2023/10/14 06:28:42;;;;;;;39.53;21.67;;;;;;;14.12;79.47;100770.06;125567;1099;104201;-80
2023/10/14 06:31:11;;;;;;;41.53;20.07;;;;;;;14.18;78.83;100777.25;125601;1099;104178;-81
2023/10/14 06:33:40;;;;;;;34.40;20.43;;;;;;;14.19;78.21;100763.19;125541;1098;102427;-80
2023/10/14 06:36:13;;;;;;;39.17;19.97;;;;;;;14.23;79.15;100765.05;125135;1099;104407;-82
2023/10/14 06:38:44;;;;;;;38.67;19.87;;;;;;;14.28;79.03;100763.41;125575;1099;104179;-83
2023/10/14 06:41:16;;;;;;;40.67;21.17;;;;;;;14.39;78.53;100750.48;125461;1099;102383;-82
2023/10/14 06:43:47;;;;;;;37.10;19.27;;;;;;;14.50;79.42;100751.62;125529;1099;101816;-81
2023/10/14 06:46:16;;;;;;;36.07;20.30;;;;;;;14.60;78.79;100754.47;125601;1099;101971;-80
2023/10/14 06:48:52;;;;;;;37.17;20.83;;;;;;;14.70;78.31;100760.05;125485;1099;104207;-82
2023/10/14 06:51:21;;;;;;;36.27;21.40;;;;;;;14.83;78.56;100755.92;125464;1099;101976;-81
2023/10/14 06:53:51;;;;;;;41.00;20.87;;;;;;;14.96;78.79;100749.18;125518;1099;101871;-84
2023/10/14 06:56:21;;;;;;;39.65;22.15;;;;;;;15.08;78.38;100746.80;125613;1099;101896;-81
2023/10/14 06:58:51;;;;;;;44.40;22.77;;;;;;;15.19;78.82;100748.77;125535;1099;118527;-82
2023/10/14 07:01:21;;;;;;;41.87;22.53;;;;;;;15.32;78.23;100757.83;125582;1099;101925;-81
2023/10/14 07:03:52;;;;;;;39.20;21.97;;;;;;;15.40;78.92;100745.67;125528;1099;101861;-80
2023/10/14 07:06:21;;;;;;;42.70;22.90;;;;;;;15.49;78.96;100744.95;125540;1099;104176;-82
2023/10/14 07:08:50;;;;;;;39.43;23.67;;;;;;;15.57;78.25;100751.30;125167;1099;101930;-84
2023/10/14 07:11:19;;;;;;;40.17;22.33;;;;;;;15.66;78.75;100748.83;125702;1099;104185;-82
2023/10/14 07:13:48;;;;;;;38.40;21.63;;;;;;;15.73;78.74;100750.70;125572;1099;104342;-81
2023/10/14 07:16:16;;;;;;;41.07;22.83;;;;;;;15.79;78.06;100750.86;125458;1099;101807;-83
2023/10/14 07:18:45;;;;;;;45.10;22.27;;;;;;;15.86;77.81;100746.55;126384;1099;102105;-81
2023/10/14 07:21:14;;;;;;;38.90;20.73;;;;;;;15.95;78.16;100745.84;125543;1099;101874;-81
2023/10/14 07:23:44;;;;;;;41.60;22.77;;;;;;;16.06;78.20;100746.91;125637;1099;104201;-81
2023/10/14 07:26:14;;;;;;;34.77;17.67;;;;;;;16.17;77.91;100733.86;125445;1098;104270;-81
2023/10/14 07:28:44;;;;;;;45.63;23.70;;;;;;;16.30;78.12;100740.27;125499;1099;101827;-79
2023/10/14 07:31:13;;;;;;;41.23;24.27;;;;;;;16.41;77.76;100736.03;125515;1099;104175;-80
2023/10/14 07:33:41;;;;;;;42.37;21.80;;;;;;;16.52;77.71;100734.42;125626;1099;102070;-80
2023/10/14 07:36:11;;;;;;;30.20;14.63;;;;;;;16.65;77.64;100734.61;125731;1098;102010;-80
2023/10/14 07:38:42;;;;;;;33.80;15.83;;;;;;;16.80;77.67;100732.17;125890;1099;104313;-82
2023/10/14 07:41:13;;;;;;;30.57;13.70;;;;;;;16.97;77.65;100728.87;125661;1099;102058;-80
2023/10/14 07:43:41;;;;;;;23.70;11.33;;;;;;;17.10;77.14;100720.23;125610;1099;104204;-82
2023/10/14 07:46:10;;;;;;;28.17;13.27;;;;;;;17.28;77.08;100713.36;125731;1099;104166;-80
2023/10/14 07:48:40;;;;;;;33.43;13.30;;;;;;;17.41;77.05;100709.98;125519;1099;101942;-78
2023/10/14 07:51:09;;;;;;;25.53;11.47;;;;;;;17.56;77.15;100712.80;125455;1099;104374;-81
2023/10/14 07:53:40;;;;;;;22.50;10.87;;;;;;;17.73;76.79;100712.06;125494;1099;104057;-81
2023/10/14 07:56:08;;;;;;;22.53;10.40;;;;;;;17.87;76.73;100704.23;125452;1099;102064;-80
2023/10/14 07:58:38;;;;;;;23.07;9.70;;;;;;;18.03;76.89;100708.85;125354;1099;104201;-79
2023/10/14 08:01:09;;;;;;;21.60;9.13;;;;;;;18.20;75.97;100700.11;125504;1099;104274;-79
2023/10/14 08:03:38;;;;;;;24.00;9.17;;;;;;;18.33;75.55;100705.53;125417;1099;104342;-83
2023/10/14 08:06:19;;;;;;;23.87;8.63;;;;;;;18.46;75.93;100705.62;124983;1099;101848;-79
2023/10/14 08:08:50;;;;;;;18.70;8.23;;;;;;;18.61;75.63;100691.55;125473;1099;102083;-80
2023/10/14 08:11:21;;;;;;;20.00;8.10;;;;;;;18.74;75.69;100688.06;125541;1099;104175;-79
2023/10/14 08:13:50;;;;;;;22.07;8.17;;;;;;;18.87;74.93;100678.43;125457;1098;101931;-81
2023/10/14 08:16:20;;;;;;;16.85;7.40;;;;;;;19.05;75.19;100680.26;125438;1099;104267;-78
2023/10/14 08:18:48;;;;;;;21.77;7.70;;;;;;;19.20;75.23;100676.78;124780;1099;104240;-77
2023/10/14 08:21:17;;;;;;;19.10;7.50;;;;;;;19.37;74.20;100672.38;125415;1099;104221;-80
2023/10/14 08:23:46;;;;;;;17.77;7.10;;;;;;;19.56;74.23;100653.79;125513;1099;104073;-81
2023/10/14 08:26:16;;;;;;;19.97;7.77;;;;;;;19.71;73.60;100656.47;125641;1098;101901;-81
2023/10/14 08:28:45;;;;;;;18.53;7.17;;;;;;;19.86;73.47;100662.71;125421;1099;101993;-80
2023/10/14 08:31:13;;;;;;;18.87;7.33;;;;;;;19.99;73.35;100655.60;125564;1099;101883;-79
2023/10/14 08:33:42;;;;;;;16.70;6.73;;;;;;;20.09;73.09;100650.27;125497;1098;104335;-79
2023/10/14 08:36:11;;;;;;;18.47;6.97;;;;;;;20.20;72.37;100638.72;125373;1099;102154;-80
2023/10/14 08:38:40;;;;;;;15.90;7.10;;;;;;;20.34;73.05;100636.91;125384;1099;104233;-79
2023/10/14 08:41:14;;;;;;;22.53;7.23;;;;;;;20.47;71.46;100633.34;125421;1099;104171;-79
2023/10/14 08:43:44;;;;;;;;;;;;;;;20.59;70.89;100639.52;125513;1099;102152;-79
2023/10/14 08:46:14;;;;;;;15.43;6.60;;;;;;;20.72;70.94;100635.92;125593;1099;104221;-79
2023/10/14 08:48:43;;;;;;;14.30;6.17;;;;;;;20.83;70.01;100627.88;125464;1099;104256;-77
2023/10/14 08:51:14;;;;;;;15.73;6.00;;;;;;;20.93;70.30;100632.29;125432;1099;102153;-81
2023/10/14 08:53:45;;;;;;;16.27;6.13;;;;;;;21.06;70.38;100619.77;125375;1099;104361;-78
2023/10/14 08:56:14;;;;;;;13.33;5.43;;;;;;;21.13;67.88;100617.94;125346;1099;104211;-80
2023/10/14 08:58:42;;;;;;;13.00;6.00;;;;;;;21.21;68.29;100621.47;125351;1099;101878;-79
2023/10/14 09:01:16;;;;;;;16.77;6.00;;;;;;;21.34;68.44;100609.80;126221;1099;101884;-78
2023/10/14 09:03:46;;;;;;;16.80;6.55;;;;;;;21.49;68.39;100618.66;126353;1098;102086;-78
2023/10/14 09:06:15;;;;;;;17.67;6.43;;;;;;;21.57;68.15;100616.80;125439;1099;102092;-81
2023/10/14 09:08:48;;;;;;;16.17;5.87;;;;;;;21.69;66.81;100610.46;125396;1099;102322;-79
2023/10/14 09:11:33;;;;;;;18.47;5.80;;;;;;;21.79;66.77;100611.29;125449;1099;102022;-79
2023/10/14 09:14:10;;;;;;;16.30;6.23;;;;;;;21.87;65.59;100610.30;125454;1099;104224;-81
2023/10/14 09:16:39;;;;;;;14.73;6.17;;;;;;;21.90;63.26;100602.26;125467;1099;102165;-80
2023/10/14 09:19:08;;;;;;;16.40;5.60;;;;;;;21.95;65.04;100593.33;125370;1099;102009;-80
2023/10/14 09:21:44;;;;;;;17.20;6.50;;;;;;;22.00;65.01;100594.16;125338;1099;104159;-80
2023/10/14 09:24:12;;;;;;;12.90;5.80;;;;;;;22.06;64.20;100600.34;125660;1099;102080;-79
2023/10/14 09:26:44;;;;;;;13.83;5.60;;;;;;;22.13;63.45;100585.13;125293;1099;104265;-80
2023/10/14 09:29:13;;;;;;;19.43;6.43;;;;;;;22.18;62.89;100577.94;125547;1099;104086;-78
2023/10/14 09:31:46;;;;;;;16.43;6.00;;;;;;;22.23;62.33;100577.89;124733;1099;104400;-81
2023/10/14 09:34:23;;;;;;;17.20;6.47;;;;;;;22.33;62.40;100573.34;125501;1099;104188;-80
2023/10/14 09:36:55;;;;;;;14.90;6.00;;;;;;;22.38;60.31;100564.38;125446;1099;104160;-80
2023/10/14 09:39:28;;;;;;;16.67;5.80;;;;;;;22.39;59.18;100568.84;125568;1099;103617;-82
2023/10/14 09:41:59;;;;;;;17.42;6.47;;;;;;;22.41;59.81;100564.34;125481;1098;101903;-79
2023/10/14 09:44:29;;;;;;;13.10;6.30;;;;;;;22.49;60.52;100548.21;125365;1099;102139;-79
2023/10/14 09:46:59;;;;;;;16.27;6.27;;;;;;;22.58;59.61;100555.24;125325;1099;104162;-78
2023/10/14 09:49:29;;;;;;;15.03;6.33;;;;;;;22.60;59.33;100545.41;125166;1099;101953;-79
2023/10/14 09:52:01;;;;;;;18.83;5.67;;;;;;;22.60;58.84;100542.73;125266;1099;104271;-80
2023/10/14 09:54:31;;;;;;;15.55;5.85;;;;;;;22.61;58.91;100534.69;125556;1099;102007;-78
2023/10/14 09:57:01;;;;;;;13.93;5.57;;;;;;;22.67;58.27;100538.17;125275;1099;102186;-80
2023/10/14 09:59:33;;;;;;;16.47;5.53;;;;;;;22.70;58.23;100530.11;125310;1099;104150;-78
2023/10/14 10:02:02;;;;;;;14.13;5.50;;;;;;;22.77;58.68;100531.80;125340;1099;101986;-79
2023/10/14 10:04:35;;;;;;;16.07;5.63;;;;;;;22.80;57.71;100521.93;125318;1099;102086;-78
2023/10/14 10:07:24;;;;;;;10.33;5.20;;;;;;;22.86;57.20;100520.06;125748;1099;104217;-77
2023/10/14 10:10:13;;;;;;;12.67;5.50;;;;;;;22.91;57.60;100516.42;125353;1099;105029;-79
2023/10/14 10:12:45;;;;;;;16.70;6.17;;;;;;;22.97;57.20;100512.78;125246;1099;104089;-82
2023/10/14 10:15:19;;;;;;;12.50;5.17;;;;;;;23.04;57.00;100514.44;124877;1099;104172;-79
2023/10/14 10:17:56;;;;;;;13.30;5.33;;;;;;;23.08;56.70;100501.92;125324;1099;104243;-78
2023/10/14 10:20:35;;;;;;;14.07;5.63;;;;;;;23.12;56.99;100492.94;124693;1099;104192;-78
2023/10/14 10:23:06;;;;;;;19.17;6.10;;;;;;;23.20;56.66;100500.84;125027;1099;107889;-78
2023/10/14 10:25:51;;;;;;;13.87;5.77;;;;;;;23.21;55.77;100481.21;124671;1099;102152;-78
2023/10/14 10:28:46;;;;;;;13.53;5.47;;;;;;;23.24;55.71;100476.68;126191;1099;101899;-78
2023/10/14 10:31:20;;;;;;;12.77;5.73;;;;;;;23.30;54.60;100465.87;124658;1102;104420;-80
2023/10/14 10:33:57;;;;;;;13.40;4.80;;;;;;;23.29;54.04;100465.90;125825;1099;101900;-79
2023/10/14 10:36:28;;;;;;;13.57;5.33;;;;;;;23.31;54.66;100464.06;125295;1099;102312;-78
2023/10/14 10:39:15;;;;;;;15.25;5.25;;;;;;;23.36;54.47;100461.31;125309;1099;104204;-79
2023/10/14 10:41:49;;;;;;;12.67;5.40;;;;;;;23.42;54.20;100455.84;125390;1099;101900;-79
2023/10/14 10:44:18;;;;;;;;;;;;;;;23.47;54.52;100465.58;125485;1099;102034;-81
2023/10/14 10:46:49;;;;;;;14.10;5.40;;;;;;;23.48;54.18;100456.64;126056;1098;101890;-80
2023/10/14 10:49:59;;;;;;;15.30;5.70;;;;;;;23.51;53.94;100459.27;126162;1099;101828;-81
2023/10/14 10:52:28;;;;;;;15.17;5.30;;;;;;;23.57;53.76;100447.53;125246;1099;102067;-78
2023/10/14 10:54:58;;;;;;;12.83;5.27;;;;;;;23.60;53.57;100439.44;125252;1099;104182;-78
2023/10/14 10:57:28;;;;;;;17.77;5.60;;;;;;;23.61;53.64;100433.18;125367;1099;104178;-80
2023/10/14 10:59:57;;;;;;;17.03;5.33;;;;;;;23.65;53.29;100442.94;125307;1099;104269;-80
2023/10/14 11:02:29;;;;;;;15.27;5.90;;;;;;;23.68;52.96;100431.26;125530;1099;101967;-79
2023/10/14 11:04:58;;;;;;;16.90;5.40;;;;;;;23.67;52.40;100425.03;125503;1099;101858;-80
2023/10/14 11:07:27;;;;;;;9.60;5.07;;;;;;;23.64;51.52;100432.25;125423;1098;104181;-81
2023/10/14 11:09:56;;;;;;;14.03;5.30;;;;;;;23.63;51.31;100422.44;125398;1099;101952;-81
2023/10/14 11:12:24;;;;;;;12.50;5.50;;;;;;;23.65;51.25;100421.51;125324;1099;101998;-81
2023/10/14 11:14:53;;;;;;;13.93;5.23;;;;;;;23.66;51.02;100419.70;125186;1099;104402;-79
2023/10/14 11:17:23;;;;;;;12.00;5.30;;;;;;;23.64;50.72;100405.47;125268;1099;104272;-78
2023/10/14 11:19:53;;;;;;;15.07;5.43;;;;;;;23.65;50.45;100412.56;125217;1098;104172;-78
2023/10/14 11:22:23;;;;;;;14.40;5.13;;;;;;;23.65;49.93;100397.41;125281;1099;101830;-79